Time;durP1;ratioP1;P1;durP2;ratioP2;P2;SDS_P1;SDS_P2;PMS_P1;PMS_P2;Temp;Humidity;BMP_temperature;BMP_pressure;BME280_temperature;BME280_humidity;BME280_pressure;Samples;Min_cycle;Max_cycle;Signal;HPM_P1;HPM_P2
2023/08/10 00:00:08;;;;;;;0.10;0.10;;;14.00;99.90;;;;;;5029590;28;20191;-79
2023/08/10 00:02:33;;;;;;;0.10;0.10;;;14.00;99.90;;;;;;5030227;28;20266;-79
2023/08/10 00:04:59;;;;;;;0.10;0.10;;;13.80;99.90;;;;;;5037092;28;20565;-79
2023/08/10 00:07:24;;;;;;;0.10;0.10;;;13.80;99.90;;;;;;5043098;28;20660;-79
2023/08/10 00:09:50;;;;;;;0.10;0.10;;;13.90;99.90;;;;;;5029748;28;20643;-79
2023/08/10 00:12:15;;;;;;;0.10;0.10;;;13.90;99.90;;;;;;5030231;28;20218;-79
2023/08/10 00:14:41;;;;;;;0.10;0.10;;;13.80;99.90;;;;;;5042246;28;20191;-79
2023/08/10 00:17:07;;;;;;;0.10;0.10;;;13.90;99.90;;;;;;5024826;28;20237;-80
2023/08/10 00:19:32;;;;;;;0.10;0.10;;;13.90;99.90;;;;;;5028701;28;20710;-80
2023/08/10 00:21:58;;;;;;;0.10;0.10;;;13.80;99.90;;;;;;5030640;28;20686;-79
2023/08/10 00:24:23;;;;;;;0.10;0.10;;;13.80;99.90;;;;;;5026847;28;20175;-79
2023/08/10 00:26:49;;;;;;;0.10;0.10;;;13.80;99.90;;;;;;5028342;28;20191;-79
2023/08/10 00:29:14;;;;;;;0.10;0.10;;;13.90;99.90;;;;;;5028577;28;20228;-79
2023/08/10 00:31:40;;;;;;;0.10;0.10;;;13.70;99.90;;;;;;5025625;28;20199;-80
2023/08/10 00:34:05;;;;;;;0.10;0.10;;;13.70;99.90;;;;;;5029405;28;20229;-79
2023/08/10 00:36:31;;;;;;;0.10;0.10;;;13.70;99.90;;;;;;5027383;28;20188;-78
2023/08/10 00:38:56;;;;;;;0.10;0.10;;;13.70;99.90;;;;;;5026354;28;20196;-79
2023/08/10 00:41:23;;;;;;;0.10;0.10;;;13.70;99.90;;;;;;5030094;28;20252;-79
2023/08/10 00:43:48;;;;;;;0.10;0.10;;;13.70;99.90;;;;;;5028609;28;20184;-79
2023/08/10 00:46:14;;;;;;;0.10;0.10;;;13.70;99.90;;;;;;5026809;28;21239;-79
2023/08/10 00:48:40;;;;;;;0.10;0.10;;;13.70;99.90;;;;;;5029447;28;20210;-80
2023/08/10 00:51:05;;;;;;;0.10;0.10;;;13.70;99.90;;;;;;5025733;28;20210;-79
2023/08/10 00:53:32;;;;;;;0.10;0.10;;;13.70;99.90;;;;;;5026097;28;20572;-80
2023/08/10 00:55:59;;;;;;;0.10;0.10;;;13.80;99.90;;;;;;5025157;28;20211;-79
2023/08/10 00:58:26;;;;;;;0.10;0.10;;;13.70;99.90;;;;;;5028713;28;20442;-79
2023/08/10 01:00:52;;;;;;;0.10;0.10;;;13.80;99.90;;;;;;5024544;28;20938;-79
2023/08/10 01:03:18;;;;;;;0.10;0.10;;;13.70;99.90;;;;;;5026075;28;20438;-79
2023/08/10 01:05:56;;;;;;;0.10;0.10;;;13.80;99.90;;;;;;5026189;28;20207;-79
2023/08/10 01:08:32;;;;;;;0.10;0.10;;;13.80;99.90;;;;;;5027938;28;20453;-80
2023/08/10 01:11:21;;;;;;;0.10;0.10;;;13.70;99.90;;;;;;5012300;28;20536;-80
2023/08/10 01:13:53;;;;;;;0.10;0.10;;;13.60;99.90;;;;;;5029505;28;20489;-80
2023/08/10 01:16:20;;;;;;;0.10;0.10;;;13.70;99.90;;;;;;5026080;28;20470;-79
2023/08/10 01:18:47;;;;;;;0.10;0.10;;;13.70;99.90;;;;;;5030792;28;20481;-79
2023/08/10 01:21:29;;;;;;;0.10;0.10;;;13.70;99.90;;;;;;5026543;28;20446;-79
2023/08/10 01:23:59;;;;;;;0.10;0.10;;;13.60;99.90;;;;;;5019699;28;20488;-79
2023/08/10 01:26:27;;;;;;;0.10;0.10;;;13.50;99.90;;;;;;5043506;28;20957;-80
2023/08/10 01:28:54;;;;;;;0.10;0.10;;;13.60;99.90;;;;;;5025755;28;20446;-80
2023/08/10 01:31:19;;;;;;;0.10;0.10;;;13.60;99.90;;;;;;5025236;28;20481;-79
2023/08/10 01:33:45;;;;;;;0.10;0.10;;;13.60;99.90;;;;;;5025457;28;20522;-79
2023/08/10 01:36:10;;;;;;;0.10;0.10;;;13.50;99.90;;;;;;5024904;28;20705;-79
2023/08/10 01:38:36;;;;;;;0.10;0.10;;;13.50;99.90;;;;;;5029383;28;20196;-79
2023/08/10 01:41:01;;;;;;;0.10;0.10;;;13.50;99.90;;;;;;5043481;28;20184;-79
2023/08/10 01:43:27;;;;;;;0.10;0.10;;;13.60;99.90;;;;;;5029436;28;20199;-79
2023/08/10 01:45:55;;;;;;;0.10;0.10;;;13.60;99.90;;;;;;5027122;28;20187;-79
2023/08/10 01:48:26;;;;;;;0.10;0.10;;;13.50;99.90;;;;;;5044774;28;20198;-79
2023/08/10 01:50:53;;;;;;;0.10;0.10;;;13.50;99.90;;;;;;5026718;28;20486;-79
2023/08/10 01:53:26;;;;;;;0.10;0.10;;;13.50;99.90;;;;;;5026824;28;20490;-79
2023/08/10 01:55:52;;;;;;;0.10;0.10;;;13.40;99.90;;;;;;5042120;28;20442;-79
2023/08/10 01:58:18;;;;;;;0.10;0.10;;;13.50;99.90;;;;;;5027616;28;20446;-80
2023/08/10 02:00:44;;;;;;;0.10;0.10;;;13.50;99.90;;;;;;5027426;28;20538;-79
2023/08/10 02:03:09;;;;;;;0.10;0.10;;;13.50;99.90;;;;;;5030122;28;20513;-80
2023/08/10 02:05:35;;;;;;;0.10;0.10;;;13.60;99.90;;;;;;5028523;28;20636;-80
2023/08/10 02:08:01;;;;;;;0.10;0.10;;;13.60;99.90;;;;;;5030417;28;20192;-80
2023/08/10 02:10:26;;;;;;;0.10;0.10;;;13.50;99.90;;;;;;5025445;28;20560;-80
2023/08/10 02:12:52;;;;;;;0.10;0.10;;;13.60;99.90;;;;;;5026725;28;20272;-79
2023/08/10 02:15:17;;;;;;;0.10;0.10;;;13.50;99.90;;;;;;5025998;28;20179;-79
2023/08/10 02:17:43;;;;;;;0.10;0.10;;;13.60;99.90;;;;;;5029379;28;20642;-79
2023/08/10 02:20:13;;;;;;;0.10;0.10;;;13.60;99.90;;;;;;5028532;28;20192;-79
2023/08/10 02:22:42;;;;;;;0.10;0.10;;;13.60;99.90;;;;;;5028085;28;20199;-79
2023/08/10 02:25:09;;;;;;;0.10;0.10;;;13.50;99.90;;;;;;5022166;28;20457;-79
2023/08/10 02:27:35;;;;;;;0.10;0.10;;;13.40;99.90;;;;;;5014166;28;20435;-79
2023/08/10 02:30:00;;;;;;;0.10;0.10;;;13.40;99.90;;;;;;5027121;28;20569;-80
2023/08/10 02:32:26;;;;;;;0.10;0.10;;;13.40;99.90;;;;;;5032324;28;20608;-79
2023/08/10 02:34:51;;;;;;;0.10;0.10;;;13.40;99.90;;;;;;5032521;28;20615;-80
2023/08/10 02:37:17;;;;;;;0.10;0.10;;;13.40;99.90;;;;;;5030910;28;20191;-79
2023/08/10 02:39:42;;;;;;;0.10;0.10;;;13.30;99.90;;;;;;5041921;28;20285;-79
2023/08/10 02:42:08;;;;;;;0.10;0.10;;;13.40;99.90;;;;;;5028922;28;20191;-79
2023/08/10 02:44:33;;;;;;;0.10;0.10;;;13.40;99.90;;;;;;5036976;28;20191;-79
2023/08/10 02:46:59;;;;;;;0.20;0.20;;;13.40;99.90;;;;;;5026849;28;20233;-79
2023/08/10 02:49:24;;;;;;;0.10;0.10;;;13.40;99.90;;;;;;5032242;28;20568;-79
2023/08/10 02:51:50;;;;;;;0.10;0.10;;;13.30;99.90;;;;;;5031446;28;20234;-79
2023/08/10 02:54:15;;;;;;;0.10;0.10;;;13.40;99.90;;;;;;5031253;28;20195;-79
2023/08/10 02:56:41;;;;;;;0.10;0.10;;;13.40;99.90;;;;;;5046817;28;20567;-80
2023/08/10 02:59:06;;;;;;;0.10;0.10;;;13.40;99.90;;;;;;5031131;28;20199;-79
2023/08/10 03:01:32;;;;;;;0.10;0.10;;;13.30;99.90;;;;;;5028933;28;20191;-80
2023/08/10 03:03:57;;;;;;;0.10;0.10;;;13.20;99.90;;;;;;5029421;28;20191;-80
2023/08/10 03:06:23;;;;;;;0.10;0.10;;;13.30;99.90;;;;;;5031920;28;20651;-80
2023/08/10 03:08:48;;;;;;;0.10;0.10;;;13.20;99.90;;;;;;5029966;28;20584;-79
2023/08/10 03:11:14;;;;;;;0.10;0.10;;;13.20;99.90;;;;;;5047349;28;20651;-79
2023/08/10 03:13:39;;;;;;;0.10;0.10;;;13.30;99.90;;;;;;5046108;28;20227;-79
2023/08/10 03:16:05;;;;;;;0.10;0.10;;;13.20;99.90;;;;;;5027694;28;20571;-79
2023/08/10 03:18:30;;;;;;;0.10;0.10;;;13.20;99.90;;;;;;5025277;28;20194;-80
2023/08/10 03:20:56;;;;;;;0.10;0.10;;;13.20;99.90;;;;;;5029883;28;20209;-80
2023/08/10 03:23:21;;;;;;;0.10;0.10;;;13.30;99.90;;;;;;5026515;28;20195;-79
2023/08/10 03:25:47;;;;;;;0.10;0.10;;;13.30;99.90;;;;;;5031839;28;20180;-79
2023/08/10 03:28:12;;;;;;;0.10;0.10;;;13.30;99.90;;;;;;5031313;28;20203;-80
2023/08/10 03:30:40;;;;;;;0.10;0.10;;;13.30;99.90;;;;;;5029797;28;20245;-80
2023/08/10 03:33:05;;;;;;;0.10;0.10;;;13.20;99.90;;;;;;5028491;28;20219;-79
2023/08/10 03:35:31;;;;;;;0.10;0.10;;;13.20;99.90;;;;;;5041648;28;20445;-79
2023/08/10 03:37:57;;;;;;;0.10;0.10;;;13.30;99.90;;;;;;5030679;28;20195;-79
2023/08/10 03:40:22;;;;;;;0.10;0.10;;;13.30;99.90;;;;;;5032384;28;20661;-79
2023/08/10 03:42:48;;;;;;;0.10;0.10;;;13.30;99.90;;;;;;5031431;28;20188;-79
2023/08/10 03:45:13;;;;;;;0.10;0.10;;;13.30;99.90;;;;;;5032567;28;20187;-80
2023/08/10 03:47:39;;;;;;;0.10;0.10;;;13.40;99.90;;;;;;5030887;28;20199;-79
2023/08/10 03:50:06;;;;;;;0.10;0.10;;;13.30;99.90;;;;;;5031359;28;20187;-79
2023/08/10 03:52:31;;;;;;;0.10;0.10;;;13.30;99.90;;;;;;5020532;28;20349;-79
2023/08/10 03:54:57;;;;;;;0.10;0.10;;;13.30;99.90;;;;;;5023811;28;20434;-79
2023/08/10 03:57:23;;;;;;;0.10;0.10;;;13.20;99.90;;;;;;5030257;28;20199;-79
2023/08/10 03:59:48;;;;;;;0.10;0.10;;;13.20;99.90;;;;;;5047100;28;20187;-79
2023/08/10 04:02:14;;;;;;;0.10;0.10;;;13.20;99.90;;;;;;5029502;28;20206;-79
2023/08/10 04:04:40;;;;;;;0.10;0.10;;;13.20;99.90;;;;;;5028016;28;20278;-79
2023/08/10 04:07:07;;;;;;;0.10;0.10;;;13.20;99.90;;;;;;5028166;28;20183;-79
2023/08/10 04:09:33;;;;;;;0.10;0.10;;;13.20;99.90;;;;;;5029198;28;20183;-79
2023/08/10 04:11:59;;;;;;;0.10;0.10;;;13.20;99.90;;;;;;5031337;28;20496;-79
2023/08/10 04:14:25;;;;;;;0.10;0.10;;;13.20;99.90;;;;;;5027596;28;20492;-79
2023/08/10 04:16:51;;;;;;;0.10;0.10;;;13.20;99.90;;;;;;5045398;28;20613;-79
2023/08/10 04:19:17;;;;;;;0.10;0.10;;;13.20;99.90;;;;;;5031349;28;20949;-79
2023/08/10 04:21:44;;;;;;;0.10;0.10;;;13.20;99.90;;;;;;5025571;28;20191;-80
2023/08/10 04:24:10;;;;;;;0.20;0.20;;;13.30;99.90;;;;;;5018856;28;20194;-79
2023/08/10 04:26:36;;;;;;;0.10;0.10;;;13.30;99.90;;;;;;5026218;28;20814;-79
2023/08/10 04:29:02;;;;;;;0.10;0.10;;;13.30;99.90;;;;;;5042280;28;20231;-79
2023/08/10 04:31:28;;;;;;;0.10;0.10;;;13.40;99.90;;;;;;5044905;28;20811;-79
2023/08/10 04:33:53;;;;;;;0.10;0.10;;;13.30;99.90;;;;;;5028117;28;20481;-79
2023/08/10 04:36:19;;;;;;;0.10;0.10;;;13.30;99.90;;;;;;5023227;28;20279;-79
2023/08/10 04:38:44;;;;;;;0.10;0.10;;;13.40;99.90;;;;;;5026432;28;20198;-79
2023/08/10 04:41:10;;;;;;;0.10;0.10;;;13.40;99.90;;;;;;5026565;28;20535;-80
2023/08/10 04:43:35;;;;;;;0.10;0.10;;;13.40;99.90;;;;;;5027816;28;20664;-79
2023/08/10 04:46:01;;;;;;;0.10;0.10;;;13.20;99.90;;;;;;5025787;28;20184;-79
2023/08/10 04:48:27;;;;;;;0.10;0.10;;;13.30;99.90;;;;;;5026439;28;20187;-79
2023/08/10 04:50:52;;;;;;;0.10;0.10;;;13.30;99.90;;;;;;5016863;28;20492;-78
2023/08/10 04:53:18;;;;;;;0.10;0.10;;;13.30;99.90;;;;;;5038755;28;20591;-79
2023/08/10 04:55:43;;;;;;;0.10;0.10;;;13.40;99.90;;;;;;5021940;28;20183;-79
2023/08/10 04:58:09;;;;;;;0.10;0.10;;;13.40;99.90;;;;;;5020248;28;20188;-79
2023/08/10 05:00:34;;;;;;;0.10;0.10;;;13.40;99.90;;;;;;5016916;28;20195;-79
2023/08/10 05:03:00;;;;;;;0.10;0.10;;;13.40;99.90;;;;;;5016593;28;20192;-79
2023/08/10 05:05:25;;;;;;;0.10;0.10;;;13.40;99.90;;;;;;5025489;28;20196;-79
2023/08/10 05:07:51;;;;;;;0.10;0.10;;;13.40;99.90;;;;;;5019775;28;20191;-80
2023/08/10 05:10:17;;;;;;;0.10;0.10;;;13.40;99.90;;;;;;5028212;28;20626;-80
2023/08/10 05:12:42;;;;;;;0.10;0.10;;;13.40;99.90;;;;;;5036881;28;20219;-79
2023/08/10 05:15:09;;;;;;;0.10;0.10;;;13.40;99.90;;;;;;5024029;28;20445;-79
2023/08/10 05:17:37;;;;;;;0.10;0.10;;;13.40;99.90;;;;;;5021597;28;20183;-79
2023/08/10 05:20:10;;;;;;;0.10;0.10;;;13.50;99.90;;;;;;5034254;28;20480;-78
2023/08/10 05:22:36;;;;;;;0.10;0.10;;;13.50;99.90;;;;;;5028664;28;20430;-79
2023/08/10 05:25:02;;;;;;;0.10;0.10;;;13.50;99.90;;;;;;5024031;28;20438;-79
2023/08/10 05:27:27;;;;;;;0.10;0.10;;;13.60;99.90;;;;;;5030239;28;20437;-79
2023/08/10 05:29:54;;;;;;;0.10;0.10;;;13.60;99.90;;;;;;5021868;28;20242;-78
2023/08/10 05:32:20;;;;;;;0.10;0.10;;;13.70;99.90;;;;;;5030628;28;20585;-79
2023/08/10 05:34:45;;;;;;;0.10;0.10;;;13.70;99.90;;;;;;5032459;28;20957;-79
2023/08/10 05:37:11;;;;;;;0.10;0.10;;;13.80;99.90;;;;;;5029510;28;20274;-79
2023/08/10 05:39:36;;;;;;;0.10;0.10;;;13.80;99.90;;;;;;5047801;28;20218;-79
2023/08/10 05:42:02;;;;;;;0.10;0.10;;;13.80;99.90;;;;;;5055685;28;20680;-79
2023/08/10 05:44:27;;;;;;;0.10;0.10;;;13.80;99.90;;;;;;5030544;28;20194;-80
2023/08/10 05:46:53;;;;;;;0.10;0.10;;;13.80;99.90;;;;;;5028928;28;20184;-79
2023/08/10 05:49:18;;;;;;;0.10;0.10;;;13.80;99.90;;;;;;5045117;28;20329;-79
2023/08/10 05:51:44;;;;;;;0.10;0.10;;;13.90;99.90;;;;;;5028202;28;20191;-79
2023/08/10 05:54:10;;;;;;;0.20;0.20;;;14.00;99.90;;;;;;5024062;28;20219;-79
2023/08/10 05:56:35;;;;;;;0.10;0.10;;;14.10;99.90;;;;;;5033374;28;20274;-79
2023/08/10 05:59:01;;;;;;;0.10;0.10;;;14.00;99.90;;;;;;5027830;28;20545;-79
2023/08/10 06:01:27;;;;;;;0.10;0.10;;;14.10;99.90;;;;;;5026309;28;20176;-80
2023/08/10 06:03:53;;;;;;;0.10;0.10;;;14.10;99.90;;;;;;5032568;28;20185;-80
2023/08/10 06:06:18;;;;;;;0.10;0.10;;;14.30;99.90;;;;;;5030247;28;20774;-80
2023/08/10 06:08:44;;;;;;;0.10;0.10;;;14.20;99.90;;;;;;5032057;28;20270;-79
2023/08/10 06:11:11;;;;;;;0.10;0.10;;;14.30;99.90;;;;;;5029148;28;20648;-79
2023/08/10 06:13:38;;;;;;;0.10;0.10;;;14.40;99.90;;;;;;5030045;28;20613;-79
2023/08/10 06:16:04;;;;;;;0.10;0.10;;;14.30;99.90;;;;;;5033143;28;20442;-79
2023/08/10 06:18:30;;;;;;;0.10;0.10;;;14.30;99.90;;;;;;5046392;28;20481;-79
2023/08/10 06:20:55;;;;;;;0.10;0.10;;;14.30;99.90;;;;;;5032069;28;20209;-80
2023/08/10 06:23:22;;;;;;;0.10;0.10;;;14.30;99.90;;;;;;5033367;28;20554;-79
2023/08/10 06:25:48;;;;;;;0.10;0.10;;;14.40;99.90;;;;;;5037148;28;20206;-79
2023/08/10 06:28:13;;;;;;;0.10;0.10;;;14.40;99.90;;;;;;5026669;28;20525;-82
2023/08/10 06:30:40;;;;;;;0.10;0.10;;;14.50;99.90;;;;;;5041648;28;20247;-81
2023/08/10 06:33:07;;;;;;;0.10;0.10;;;14.60;99.90;;;;;;5029080;28;20207;-81
2023/08/10 06:35:35;;;;;;;0.10;0.10;;;14.50;99.90;;;;;;5029879;28;20529;-81
2023/08/10 06:38:04;;;;;;;0.10;0.10;;;14.70;99.90;;;;;;5033230;28;20579;-80
2023/08/10 06:40:31;;;;;;;0.10;0.10;;;14.70;99.90;;;;;;5043690;28;20529;-80
2023/08/10 06:42:57;;;;;;;0.10;0.10;;;14.80;99.90;;;;;;5027690;28;20434;-80
2023/08/10 06:45:23;;;;;;;0.10;0.10;;;14.80;99.90;;;;;;5040226;28;20835;-80
2023/08/10 06:47:49;;;;;;;0.10;0.10;;;14.80;99.90;;;;;;5033809;28;20785;-80
2023/08/10 06:50:16;;;;;;;0.10;0.10;;;14.80;99.90;;;;;;5057797;28;20190;-80
2023/08/10 06:52:41;;;;;;;0.10;0.10;;;14.80;99.90;;;;;;5032723;28;20586;-80
2023/08/10 06:55:07;;;;;;;0.10;0.10;;;14.70;99.90;;;;;;5031278;28;20479;-80
2023/08/10 06:57:34;;;;;;;0.10;0.10;;;14.70;99.90;;;;;;5045051;28;20184;-80
2023/08/10 07:00:02;;;;;;;0.10;0.10;;;14.80;99.90;;;;;;5030009;28;20591;-81
2023/08/10 07:02:28;;;;;;;0.10;0.10;;;14.90;99.90;;;;;;5026580;28;20477;-79
2023/08/10 07:04:54;;;;;;;0.10;0.10;;;15.10;99.90;;;;;;5020366;28;20541;-80
2023/08/10 07:07:20;;;;;;;0.10;0.10;;;15.20;99.90;;;;;;5030635;28;20194;-79
2023/08/10 07:09:46;;;;;;;0.10;0.10;;;15.20;99.90;;;;;;5038222;28;20456;-79
2023/08/10 07:12:12;;;;;;;0.10;0.10;;;15.30;99.90;;;;;;5034074;28;20234;-80
2023/08/10 07:14:37;;;;;;;0.10;0.10;;;15.30;99.90;;;;;;5036445;28;20478;-79
2023/08/10 07:17:03;;;;;;;0.10;0.10;;;15.50;99.90;;;;;;5033223;28;20748;-79
2023/08/10 07:19:28;;;;;;;0.10;0.10;;;15.50;99.90;;;;;;5041616;28;20191;-80
2023/08/10 07:21:55;;;;;;;0.10;0.10;;;15.40;99.90;;;;;;5024852;28;20260;-80
2023/08/10 07:24:24;;;;;;;0.10;0.10;;;15.70;99.90;;;;;;5048136;28;20218;-80
2023/08/10 07:26:52;;;;;;;0.10;0.10;;;15.70;99.90;;;;;;5030611;28;20441;-80
2023/08/10 07:29:18;;;;;;;0.10;0.10;;;15.80;99.90;;;;;;5026065;28;20525;-80
2023/08/10 07:31:44;;;;;;;0.10;0.10;;;15.60;99.90;;;;;;5042726;28;20444;-79
2023/08/10 07:34:10;;;;;;;0.10;0.10;;;15.70;99.90;;;;;;5041901;28;20484;-80
2023/08/10 07:36:36;;;;;;;0.10;0.10;;;15.50;99.90;;;;;;5028768;28;20438;-79
2023/08/10 07:39:01;;;;;;;0.10;0.10;;;15.90;99.90;;;;;;5031861;28;20179;-80
2023/08/10 07:41:27;;;;;;;0.10;0.10;;;16.20;99.90;;;;;;5028809;28;20172;-80
2023/08/10 07:43:52;;;;;;;0.10;0.10;;;16.30;99.90;;;;;;5044073;28;20659;-79
2023/08/10 07:46:18;;;;;;;0.10;0.10;;;16.80;99.90;;;;;;5033451;28;20623;-80
2023/08/10 07:48:45;;;;;;;0.10;0.10;;;17.20;99.90;;;;;;5036397;28;20723;-80
2023/08/10 07:51:11;;;;;;;0.10;0.10;;;17.50;99.90;;;;;;5028175;28;20252;-79
2023/08/10 07:53:37;;;;;;;0.10;0.10;;;17.30;99.90;;;;;;5039074;28;20832;-80
2023/08/10 07:56:02;;;;;;;0.10;0.10;;;16.60;99.90;;;;;;5030289;28;20189;-80
2023/08/10 07:58:28;;;;;;;0.10;0.10;;;16.30;99.90;;;;;;5035834;28;20190;-80
2023/08/10 08:00:53;;;;;;;0.10;0.10;;;16.10;99.90;;;;;;5023426;28;20196;-83
2023/08/10 08:03:20;;;;;;;0.10;0.10;;;16.30;99.90;;;;;;5038278;28;20686;-82
2023/08/10 08:05:46;;;;;;;0.10;0.10;;;16.70;99.90;;;;;;5027527;28;20184;-83
2023/08/10 08:08:11;;;;;;;0.10;0.10;;;17.10;99.90;;;;;;5023154;28;20454;-79
2023/08/10 08:10:37;;;;;;;0.10;0.10;;;17.60;99.90;;;;;;5026341;28;20226;-78
2023/08/10 08:13:03;;;;;;;0.10;0.10;;;17.80;99.90;;;;;;5033379;28;20706;-81
2023/08/10 08:15:29;;;;;;;0.10;0.10;;;17.90;99.90;;;;;;5031588;28;20194;-81
2023/08/10 08:18:34;;;;;;;0.10;0.00;;;17.90;99.90;;;;;;5020735;28;20188;-81
2023/08/10 08:21:00;;;;;;;0.10;0.10;;;17.40;99.90;;;;;;5026747;28;21320;-83
2023/08/10 08:23:25;;;;;;;0.10;0.10;;;17.40;99.90;;;;;;5024509;28;20534;-82
2023/08/10 08:25:51;;;;;;;0.10;0.10;;;18.10;99.90;;;;;;5025185;28;20438;-81
2023/08/10 08:28:16;;;;;;;0.10;0.10;;;18.20;99.90;;;;;;5021631;28;20201;-81
2023/08/10 08:30:42;;;;;;;0.10;0.10;;;18.10;99.90;;;;;;5024658;28;20947;-82
2023/08/10 08:33:09;;;;;;;0.10;0.07;;;18.10;99.90;;;;;;5027901;28;20218;-82
2023/08/10 08:35:35;;;;;;;0.10;0.10;;;17.50;99.90;;;;;;5026514;28;20184;-81
2023/08/10 08:38:00;;;;;;;0.10;0.10;;;17.10;99.90;;;;;;5029273;28;20430;-82
2023/08/10 08:40:26;;;;;;;0.10;0.10;;;16.70;99.90;;;;;;5030266;28;20218;-82
2023/08/10 08:42:52;;;;;;;0.10;0.10;;;16.80;99.90;;;;;;5026730;28;20186;-82
2023/08/10 08:45:17;;;;;;;0.10;0.10;;;16.60;99.90;;;;;;5028352;28;20253;-82
2023/08/10 08:47:44;;;;;;;0.10;0.10;;;16.60;99.90;;;;;;5044113;28;20446;-81
2023/08/10 08:50:11;;;;;;;0.10;0.10;;;16.50;99.90;;;;;;5028506;28;20195;-82
2023/08/10 08:52:39;;;;;;;0.10;0.10;;;17.10;99.90;;;;;;5031031;28;20481;-81
2023/08/10 08:55:07;;;;;;;0.10;0.10;;;17.30;99.90;;;;;;5032506;28;20468;-81
2023/08/10 08:57:32;;;;;;;0.10;0.10;;;17.60;99.90;;;;;;5022485;28;20442;-82
2023/08/10 08:59:59;;;;;;;0.10;0.10;;;17.70;99.90;;;;;;5023778;28;20446;-82
2023/08/10 09:02:24;;;;;;;0.10;0.10;;;18.10;99.90;;;;;;5039384;28;20651;-82
2023/08/10 09:04:51;;;;;;;0.10;0.10;;;18.10;99.90;;;;;;5028824;28;20527;-81
2023/08/10 09:07:17;;;;;;;0.10;0.10;;;17.60;99.90;;;;;;5027350;28;20237;-82
2023/08/10 09:09:43;;;;;;;0.10;0.10;;;17.40;99.90;;;;;;5025787;28;20520;-81
2023/08/10 09:12:28;;;;;;;0.10;0.10;;;17.40;99.90;;;;;;5027830;28;20442;-82
2023/08/10 09:15:02;;;;;;;0.10;0.10;;;18.20;99.90;;;;;;5028168;28;20446;-81
2023/08/10 09:17:28;;;;;;;0.10;0.10;;;18.90;99.90;;;;;;5025214;28;20441;-81
2023/08/10 09:19:54;;;;;;;0.10;0.10;;;19.20;99.90;;;;;;5034950;28;20568;-81
2023/08/10 09:22:39;;;;;;;0.10;0.10;;;18.90;99.90;;;;;;5043430;28;20266;-82
2023/08/10 09:25:09;;;;;;;0.10;0.10;;;18.20;99.90;;;;;;5024931;28;20270;-82
2023/08/10 09:27:34;;;;;;;0.10;0.10;;;17.90;99.90;;;;;;5026957;28;21248;-81
2023/08/10 09:30:06;;;;;;;0.10;0.10;;;17.70;99.90;;;;;;5026621;28;20505;-81
2023/08/10 09:32:32;;;;;;;0.10;0.10;;;17.60;99.90;;;;;;5044829;28;20301;-82
2023/08/10 09:34:58;;;;;;;0.10;0.10;;;18.20;99.90;;;;;;5036596;28;20451;-81
2023/08/10 09:37:25;;;;;;;0.10;0.10;;;18.50;99.90;;;;;;5027991;28;20457;-81
2023/08/10 09:39:55;;;;;;;0.10;0.10;;;18.30;99.90;;;;;;5033878;28;20197;-82
2023/08/10 09:42:21;;;;;;;0.10;0.10;;;18.00;99.90;;;;;;5043135;28;20822;-81
2023/08/10 09:44:49;;;;;;;0.10;0.00;;;18.00;99.90;;;;;;5051465;28;20441;-82
2023/08/10 09:47:16;;;;;;;0.10;0.10;;;17.80;99.90;;;;;;5026966;28;20719;-82
2023/08/10 09:50:01;;;;;;;0.10;0.10;;;19.00;99.90;;;;;;5031752;28;20457;-83
2023/08/10 09:52:28;;;;;;;0.10;0.10;;;19.80;99.90;;;;;;5039965;28;20472;-82
2023/08/10 09:54:56;;;;;;;0.10;0.10;;;20.40;99.90;;;;;;5015450;28;20445;-82
2023/08/10 09:57:26;;;;;;;0.10;0.00;;;20.90;99.90;;;;;;5043328;28;20819;-81
2023/08/10 09:59:52;;;;;;;0.10;0.00;;;20.70;99.90;;;;;;5038646;28;20456;-83
2023/08/10 10:02:22;;;;;;;0.10;0.00;;;21.40;99.90;;;;;;5028692;28;20951;-82
2023/08/10 10:04:49;;;;;;;0.10;0.00;;;20.60;99.90;;;;;;5038016;28;20446;-81
2023/08/10 10:07:25;;;;;;;0.10;0.00;;;19.80;99.90;;;;;;5032110;28;20454;-82
2023/08/10 10:09:51;;;;;;;0.10;0.00;;;19.10;99.90;;;;;;5026751;28;20441;-83
2023/08/10 10:12:17;;;;;;;0.10;0.00;;;19.00;99.90;;;;;;5027406;28;20540;-82
2023/08/10 10:14:47;;;;;;;0.10;0.00;;;20.10;99.90;;;;;;5039962;28;20544;-82
2023/08/10 10:17:15;;;;;;;0.10;0.00;;;20.90;99.90;;;;;;5026556;28;20442;-87
2023/08/10 10:19:41;;;;;;;0.10;0.10;;;21.10;99.90;;;;;;5025268;28;20454;-85
2023/08/10 10:22:08;;;;;;;0.10;0.00;;;21.70;99.90;;;;;;5029918;28;20910;-86
2023/08/10 10:24:38;;;;;;;0.10;0.00;;;22.10;99.90;;;;;;5028126;28;20454;-86
2023/08/10 10:27:09;;;;;;;0.10;0.00;;;21.80;99.90;;;;;;5026175;28;20776;-85
2023/08/10 10:29:40;;;;;;;0.10;0.00;;;21.60;99.90;;;;;;5027179;28;20571;-87
2023/08/10 10:32:19;;;;;;;0.10;0.00;;;22.60;99.90;;;;;;5024408;28;20448;-87
2023/08/10 10:34:46;;;;;;;0.10;0.00;;;22.10;99.90;;;;;;5021045;28;20476;-88
2023/08/10 10:37:12;;;;;;;0.10;0.00;;;20.90;99.90;;;;;;5043060;28;20507;-86
2023/08/10 10:39:40;;;;;;;0.10;0.00;;;20.20;99.90;;;;;;5027039;28;20442;-87
2023/08/10 10:42:05;;;;;;;0.10;0.00;;;21.20;99.90;;;;;;5023490;28;20437;-88
2023/08/10 10:45:14;;;;;;;0.10;0.00;;;22.20;99.90;;;;;;5049177;28;20428;-85
2023/08/10 10:47:47;;;;;;;0.10;0.00;;;22.70;99.90;;;;;;5031105;28;20191;-87
2023/08/10 10:50:22;;;;;;;0.10;0.00;;;21.70;99.90;;;;;;5027698;28;20508;-86
2023/08/10 10:53:13;;;;;;;0.10;0.00;;;20.80;99.90;;;;;;5029297;28;21042;-87
2023/08/10 10:55:43;;;;;;;0.10;0.00;;;21.30;99.90;;;;;;5027692;28;20453;-87
2023/08/10 10:58:14;;;;;;;0.10;0.00;;;22.10;99.90;;;;;;5049343;28;20798;-87
2023/08/10 11:00:41;;;;;;;0.10;0.00;;;22.50;99.90;;;;;;5055181;28;20896;-87
2023/08/10 11:03:10;;;;;;;0.10;0.00;;;23.10;99.90;;;;;;5029690;28;20438;-87
2023/08/10 11:05:37;;;;;;;0.10;0.00;;;23.10;99.90;;;;;;5042874;28;20457;-88
2023/08/10 11:08:03;;;;;;;0.10;0.00;;;23.50;99.90;;;;;;5027572;28;20458;-87
2023/08/10 11:10:36;;;;;;;0.10;0.00;;;23.80;99.90;;;;;;5046172;28;20545;-87
2023/08/10 11:13:07;;;;;;;0.10;0.00;;;23.50;99.90;;;;;;5031791;28;20464;-86
2023/08/10 11:15:34;;;;;;;0.10;0.00;;;24.10;99.90;;;;;;5029282;28;20441;-86
2023/08/10 11:18:00;;;;;;;0.10;0.00;;;24.90;99.90;;;;;;5035125;28;20436;-87
2023/08/10 11:20:26;;;;;;;0.10;0.00;;;25.10;99.90;;;;;;5027421;28;20952;-85
2023/08/10 11:22:52;;;;;;;0.10;0.00;;;24.70;99.90;;;;;;5032099;28;20438;-85
2023/08/10 11:25:27;;;;;;;0.10;0.00;;;25.30;99.90;;;;;;5048562;28;20438;-85
2023/08/10 11:27:54;;;;;;;0.10;0.00;;;25.40;99.90;;;;;;5053070;28;20432;-89
2023/08/10 11:30:22;;;;;;;0.10;0.00;;;24.00;99.90;;;;;;5062289;28;20485;-86
2023/08/10 11:32:49;;;;;;;0.10;0.00;;;24.40;99.90;;;;;;5031433;28;20509;-86
2023/08/10 11:35:18;;;;;;;0.10;0.00;;;24.80;99.90;;;;;;5031695;28;20460;-86
2023/08/10 11:37:44;;;;;;;0.10;0.00;;;25.40;99.90;;;;;;5029696;28;20454;-85
2023/08/10 11:40:17;;;;;;;0.10;0.00;;;24.70;99.90;;;;;;5030248;28;20434;-85
2023/08/10 11:42:49;;;;;;;0.10;0.00;;;25.70;99.90;;;;;;5028770;28;20946;-85
2023/08/10 11:45:23;;;;;;;0.10;0.00;;;26.30;99.90;;;;;;5032714;28;20437;-85
2023/08/10 11:47:51;;;;;;;0.10;0.00;;;26.70;99.90;;;;;;5046192;28;20446;-84
2023/08/10 11:50:18;;;;;;;0.10;0.00;;;26.40;99.90;;;;;;5029535;28;20448;-83
2023/08/10 11:52:44;;;;;;;0.10;0.00;;;25.30;99.90;;;;;;5046509;28;20470;-84
2023/08/10 11:55:14;;;;;;;0.10;0.00;;;24.40;99.90;;;;;;5046084;28;20457;-83
2023/08/10 11:57:42;;;;;;;0.10;0.00;;;22.90;99.90;;;;;;5028780;28;20246;-85
2023/08/10 12:00:33;;;;;;;0.10;0.00;;;22.40;99.90;;;;;;5027248;28;20450;-86
2023/08/10 12:03:21;;;;;;;0.10;0.00;;;23.80;99.90;;;;;;5029382;28;20553;-87
2023/08/10 12:06:00;;;;;;;0.10;0.00;;;25.00;99.90;;;;;;5028662;28;20477;-85
2023/08/10 12:08:28;;;;;;;0.10;0.00;;;26.00;99.90;;;;;;5028303;28;20537;-85
2023/08/10 12:11:08;;;;;;;0.10;0.00;;;25.10;99.90;;;;;;5026705;28;20552;-87
2023/08/10 12:13:44;;;;;;;0.10;0.00;;;23.00;99.90;;;;;;5030415;28;20493;-83
2023/08/10 12:16:10;;;;;;;0.10;0.00;;;22.10;99.90;;;;;;5028602;28;20519;-84
2023/08/10 12:18:37;;;;;;;0.10;0.00;;;22.40;99.90;;;;;;5030403;28;20453;-84
2023/08/10 12:21:03;;;;;;;0.10;0.00;;;23.50;99.90;;;;;;5032027;28;20419;-84
2023/08/10 12:23:29;;;;;;;0.10;0.00;;;25.30;99.90;;;;;;5041444;28;20450;-83
2023/08/10 12:25:55;;;;;;;0.10;0.00;;;24.80;99.90;;;;;;5023663;28;20188;-81
2023/08/10 12:28:21;;;;;;;0.10;0.00;;;24.10;99.90;;;;;;5045768;28;20191;-84
2023/08/10 12:30:49;;;;;;;0.10;0.00;;;22.30;99.90;;;;;;5027172;28;20445;-85
2023/08/10 12:33:15;;;;;;;0.10;0.00;;;21.40;99.90;;;;;;5027891;28;20509;-85
2023/08/10 12:35:42;;;;;;;0.10;0.10;;;21.00;99.90;;;;;;5028724;28;20728;-84
2023/08/10 12:38:11;;;;;;;0.10;0.00;;;20.90;99.90;;;;;;5029444;28;20437;-86
2023/08/10 12:40:37;;;;;;;0.10;0.00;;;22.30;99.90;;;;;;5030246;28;20924;-85
2023/08/10 12:43:03;;;;;;;0.10;0.00;;;23.80;99.90;;;;;;5037925;28;20458;-85
2023/08/10 12:45:29;;;;;;;0.10;0.00;;;25.10;99.90;;;;;;5029581;28;20480;-83
2023/08/10 12:47:55;;;;;;;0.10;0.00;;;26.20;99.90;;;;;;5034265;28;20454;-81